createdAt,value
2017-12-22T00:01:36.206Z,22.53
2017-12-22T00:04:03.890Z,21.93
2017-12-22T00:06:32.171Z,20.20
2017-12-22T00:08:59.711Z,24.87
2017-12-22T00:11:27.243Z,24.20
2017-12-22T00:13:54.762Z,22.30
2017-12-22T00:16:22.258Z,22.92
2017-12-22T00:18:49.776Z,24.00
2017-12-22T00:21:18.654Z,20.05
2017-12-22T00:23:46.914Z,21.17
2017-12-22T00:26:14.439Z,22.37
2017-12-22T00:28:42.722Z,22.23
2017-12-22T00:31:10.218Z,24.20
2017-12-22T00:33:37.738Z,26.42
2017-12-22T00:36:07.030Z,24.30
2017-12-22T00:38:34.531Z,26.02
2017-12-22T00:41:02.059Z,23.70
2017-12-22T00:43:29.783Z,26.87
2017-12-22T00:46:03.117Z,29.75
2017-12-22T00:48:30.645Z,28.30
2017-12-22T00:50:58.138Z,26.98
2017-12-22T00:53:25.724Z,29.02
2017-12-22T00:55:53.214Z,27.05
2017-12-22T00:58:21.529Z,21.47
2017-12-22T01:00:50.572Z,22.60
2017-12-22T01:03:18.846Z,17.90
2017-12-22T01:05:47.122Z,18.27
2017-12-22T01:08:14.634Z,18.80
2017-12-22T01:10:43.189Z,17.27
2017-12-22T01:13:10.715Z,17.80
2017-12-22T01:15:43.866Z,15.33
2017-12-22T01:18:16.911Z,14.73
2017-12-22T01:20:45.368Z,14.73
2017-12-22T01:23:12.862Z,13.95
2017-12-22T01:25:40.359Z,14.85
2017-12-22T01:28:07.859Z,15.13
2017-12-22T01:30:35.358Z,16.23
2017-12-22T01:33:03.680Z,18.43
2017-12-22T01:35:31.211Z,17.67
2017-12-22T01:37:58.766Z,20.80
2017-12-22T01:40:26.263Z,20.95
2017-12-22T01:42:54.638Z,23.02
2017-12-22T01:45:22.131Z,20.70
2017-12-22T01:47:49.678Z,25.37
2017-12-22T01:50:17.978Z,25.20
2017-12-22T01:52:45.478Z,25.43
2017-12-22T01:55:12.982Z,27.83
2017-12-22T01:57:40.503Z,30.25
2017-12-22T02:00:08.067Z,31.92
2017-12-22T02:02:36.350Z,35.67
2017-12-22T02:05:04.827Z,36.35
2017-12-22T02:07:32.402Z,37.15
2017-12-22T02:10:01.446Z,40.60
2017-12-22T02:12:28.954Z,39.50
2017-12-22T02:14:57.222Z,38.63
2017-12-22T02:17:26.101Z,38.45
2017-12-22T02:19:53.616Z,38.67
2017-12-22T02:22:21.109Z,41.60
2017-12-22T02:24:50.290Z,42.95
2017-12-22T02:27:18.011Z,45.20
2017-12-22T02:29:47.421Z,43.45
2017-12-22T02:32:16.934Z,48.05
2017-12-22T02:34:45.678Z,45.38
2017-12-22T02:37:13.213Z,48.22
2017-12-22T02:39:40.725Z,44.13
2017-12-22T02:42:09.735Z,43.53
2017-12-22T02:44:38.649Z,46.88
2017-12-22T02:47:10.762Z,45.05
2017-12-22T02:49:38.254Z,50.10
2017-12-22T02:52:09.471Z,46.83
2017-12-22T02:54:36.978Z,45.25
2017-12-22T02:57:04.474Z,47.42
2017-12-22T02:59:32.535Z,44.80
2017-12-22T03:02:00.043Z,42.72
2017-12-22T03:04:28.354Z,46.63
2017-12-22T03:06:56.038Z,44.80
2017-12-22T03:09:23.651Z,45.95
2017-12-22T03:11:51.158Z,45.58
2017-12-22T03:14:18.649Z,46.80
2017-12-22T03:16:46.929Z,45.28
2017-12-22T03:19:15.194Z,49.85
2017-12-22T03:21:43.450Z,44.35
2017-12-22T03:24:10.975Z,45.50
2017-12-22T03:26:38.473Z,46.83
2017-12-22T03:29:05.973Z,47.75
2017-12-22T03:31:33.776Z,46.45
2017-12-22T03:34:01.272Z,44.70
2017-12-22T03:36:29.533Z,49.67
2017-12-22T03:41:30.970Z,47.45
2017-12-22T03:43:58.478Z,45.20
2017-12-22T03:46:26.746Z,48.50
2017-12-22T03:48:55.154Z,45.43
2017-12-22T03:51:22.679Z,45.30
2017-12-22T03:53:51.117Z,41.78
2017-12-22T03:56:18.908Z,42.42
2017-12-22T03:58:47.098Z,41.17
2017-12-22T04:01:14.588Z,46.37
2017-12-22T04:03:42.086Z,44.20
2017-12-22T04:06:09.609Z,43.57
2017-12-22T04:08:37.098Z,44.83
2017-12-22T04:11:04.594Z,43.17
2017-12-22T04:13:32.106Z,44.15
2017-12-22T04:15:59.595Z,41.50
2017-12-22T04:18:27.095Z,46.10
2017-12-22T04:20:55.545Z,45.83
2017-12-22T04:23:23.117Z,45.75
2017-12-22T04:25:51.391Z,45.30
2017-12-22T04:28:20.262Z,47.55
2017-12-22T04:30:47.767Z,44.85
2017-12-22T04:33:15.257Z,46.08
2017-12-22T04:35:42.779Z,46.53
2017-12-22T04:38:11.046Z,47.38
2017-12-22T04:40:39.306Z,47.95
2017-12-22T04:43:07.762Z,47.10
2017-12-22T04:45:35.258Z,46.78
2017-12-22T04:48:03.526Z,42.95
2017-12-22T04:50:31.036Z,43.22
2017-12-22T04:52:58.534Z,46.88
2017-12-22T04:55:26.025Z,45.15
2017-12-22T04:57:54.298Z,46.65
2017-12-22T05:00:22.655Z,46.15
2017-12-22T05:02:50.142Z,46.97
2017-12-22T05:05:17.660Z,44.88
2017-12-22T05:07:45.159Z,46.83
2017-12-22T05:10:12.650Z,43.13
2017-12-22T05:12:40.162Z,43.08
2017-12-22T05:15:08.421Z,41.65
2017-12-22T05:17:35.910Z,43.50
2017-12-22T05:20:03.435Z,40.40
2017-12-22T05:22:30.926Z,41.03
2017-12-22T05:24:58.411Z,43.33
2017-12-22T05:27:25.918Z,46.72
2017-12-22T05:29:53.418Z,43.45
2017-12-22T05:32:20.914Z,44.30
2017-12-22T05:34:48.427Z,45.83
2017-12-22T05:37:15.935Z,47.33
2017-12-22T05:39:43.435Z,44.45
2017-12-22T05:42:10.980Z,48.92
2017-12-22T05:44:39.251Z,45.83
2017-12-22T05:47:06.742Z,45.45
2017-12-22T05:49:35.036Z,45.65
2017-12-22T05:52:02.522Z,45.05
2017-12-22T05:54:30.010Z,48.33
2017-12-22T05:56:58.286Z,40.33
2017-12-22T05:59:26.554Z,47.20
2017-12-22T06:01:54.065Z,47.75
2017-12-22T06:04:21.602Z,44.30
2017-12-22T06:06:49.100Z,44.72
2017-12-22T06:09:16.587Z,42.58
2017-12-22T06:11:44.106Z,44.75
2017-12-22T06:14:11.603Z,45.80
2017-12-22T06:16:39.098Z,42.50
2017-12-22T06:19:06.615Z,42.55
2017-12-22T06:21:34.104Z,40.10
2017-12-22T06:24:02.427Z,34.97
2017-12-22T06:26:29.946Z,38.40
2017-12-22T06:28:57.470Z,40.20
2017-12-22T06:31:24.971Z,39.75
2017-12-22T06:33:52.503Z,36.92
2017-12-22T06:36:20.774Z,38.38
2017-12-22T06:38:48.277Z,39.40
2017-12-22T06:41:15.806Z,38.13
2017-12-22T06:43:43.310Z,38.05
2017-12-22T06:46:10.818Z,40.28
2017-12-22T06:48:38.345Z,38.53
2017-12-22T06:51:06.599Z,39.33
2017-12-22T06:53:34.094Z,38.88
2017-12-22T06:56:01.609Z,41.00
2017-12-22T06:58:29.098Z,39.60
2017-12-22T07:00:56.614Z,36.80
2017-12-22T07:03:24.126Z,39.22
2017-12-22T07:05:51.654Z,35.03
2017-12-22T07:08:20.363Z,34.58
2017-12-22T07:10:47.895Z,35.58
2017-12-22T07:13:15.398Z,34.78
2017-12-22T07:15:42.886Z,34.28
2017-12-22T07:18:10.399Z,33.42
2017-12-22T07:20:37.896Z,33.40
2017-12-22T07:23:06.958Z,33.10
2017-12-22T07:25:34.556Z,34.33
2017-12-22T07:28:02.809Z,35.33
2017-12-22T07:30:30.304Z,35.30
2017-12-22T07:32:58.081Z,38.33
2017-12-22T07:35:25.570Z,39.10
2017-12-22T07:37:53.068Z,40.80
2017-12-22T07:40:21.349Z,41.78
2017-12-22T07:42:49.620Z,43.00
2017-12-22T07:45:17.889Z,42.53
2017-12-22T07:47:45.429Z,48.55
2017-12-22T07:50:12.918Z,48.50
2017-12-22T07:52:41.184Z,51.67
2017-12-22T07:55:09.470Z,50.28
2017-12-22T07:57:36.990Z,50.67
2017-12-22T08:00:04.478Z,50.85
2017-12-22T08:02:32.766Z,49.25
2017-12-22T08:05:01.027Z,50.90
2017-12-22T08:07:28.523Z,49.40
2017-12-22T08:09:56.046Z,53.58
2017-12-22T08:12:24.314Z,52.97
2017-12-22T08:14:51.810Z,55.20
2017-12-22T08:17:19.331Z,52.38
2017-12-22T08:19:46.827Z,48.93
2017-12-22T08:22:14.339Z,50.40
2017-12-22T08:24:41.863Z,52.33
2017-12-22T08:27:09.362Z,50.83
2017-12-22T08:29:36.854Z,51.65
2017-12-22T08:32:04.384Z,49.03
2017-12-22T08:34:32.666Z,49.05
2017-12-22T08:37:00.157Z,50.50
2017-12-22T08:39:27.670Z,49.17
2017-12-22T08:41:55.189Z,48.40
2017-12-22T08:44:22.695Z,50.90
2017-12-22T08:46:50.246Z,48.28
2017-12-22T08:49:17.744Z,47.22
2017-12-22T08:51:45.359Z,53.13
2017-12-22T08:54:12.890Z,49.22
2017-12-22T08:56:40.387Z,46.83
2017-12-22T08:59:07.886Z,47.83
2017-12-22T09:01:35.404Z,52.60
2017-12-22T09:04:02.890Z,49.80
2017-12-22T09:06:31.150Z,52.20
2017-12-22T09:08:58.837Z,51.33
2017-12-22T09:11:26.371Z,48.30
2017-12-22T09:13:54.643Z,50.38
2017-12-22T09:16:22.170Z,50.30
2017-12-22T09:18:49.659Z,43.40
2017-12-22T09:21:17.154Z,49.72
2017-12-22T09:23:44.682Z,46.80
2017-12-22T09:26:12.182Z,49.90
2017-12-22T09:28:39.679Z,49.13
2017-12-22T09:31:07.202Z,50.08
2017-12-22T09:33:34.705Z,48.03
2017-12-22T09:36:02.235Z,51.10
2017-12-22T09:38:29.766Z,46.47
2017-12-22T09:40:57.272Z,48.13
2017-12-22T09:43:24.772Z,50.30
2017-12-22T09:45:53.079Z,50.33
2017-12-22T09:48:21.296Z,50.28
2017-12-22T09:50:48.789Z,50.33
2017-12-22T09:53:16.310Z,48.83
2017-12-22T09:55:43.850Z,48.28
2017-12-22T09:58:11.407Z,50.07
2017-12-22T10:00:38.926Z,48.43
2017-12-22T10:03:06.427Z,45.72
2017-12-22T10:05:34.801Z,49.33
2017-12-22T10:08:02.352Z,49.80
2017-12-22T10:10:29.857Z,47.83
2017-12-22T10:12:57.351Z,49.53
2017-12-22T10:15:25.006Z,51.22
2017-12-22T10:17:53.275Z,52.40
2017-12-22T10:20:21.609Z,48.53
2017-12-22T10:22:49.126Z,54.97
2017-12-22T10:25:16.614Z,52.00
2017-12-22T10:27:44.102Z,52.50
2017-12-22T10:30:11.690Z,52.75
2017-12-22T10:32:39.227Z,52.03
2017-12-22T10:35:06.741Z,53.20
2017-12-22T10:37:34.264Z,50.40
2017-12-22T10:40:02.550Z,52.95
2017-12-22T10:42:30.047Z,53.00
2017-12-22T10:44:57.559Z,52.50
2017-12-22T10:47:25.882Z,53.45
2017-12-22T10:49:53.378Z,54.23
2017-12-22T10:52:20.902Z,52.95
2017-12-22T10:54:48.426Z,54.63
2017-12-22T10:57:15.934Z,55.88
2017-12-22T10:59:43.474Z,57.90
2017-12-22T11:02:10.972Z,56.10
2017-12-22T11:04:38.507Z,56.05
2017-12-22T11:07:06.019Z,56.90
2017-12-22T11:09:33.513Z,55.88
2017-12-22T11:12:01.071Z,52.10
2017-12-22T11:14:28.586Z,52.65
2017-12-22T11:16:56.846Z,54.43
2017-12-22T11:19:24.440Z,56.30
2017-12-22T11:21:52.030Z,56.40
2017-12-22T11:24:19.551Z,54.20
2017-12-22T11:26:47.830Z,55.67
2017-12-22T11:29:17.074Z,56.10
2017-12-22T11:31:44.632Z,56.33
2017-12-22T11:34:12.122Z,53.10
2017-12-22T11:36:39.677Z,53.00
2017-12-22T11:39:08.314Z,57.40
2017-12-22T11:41:35.806Z,52.83
2017-12-22T11:44:10.643Z,53.83
2017-12-22T11:46:39.427Z,56.90
2017-12-22T11:49:08.228Z,49.87
2017-12-22T11:51:36.751Z,54.20
2017-12-22T11:54:04.253Z,48.70
2017-12-22T11:56:31.754Z,49.70
2017-12-22T11:58:59.307Z,50.70
2017-12-22T12:01:27.591Z,49.27
2017-12-22T12:03:55.866Z,48.53
2017-12-22T12:06:23.425Z,49.67
2017-12-22T12:08:51.690Z,47.40
2017-12-22T12:11:19.194Z,46.97
2017-12-22T12:13:46.714Z,50.70
2017-12-22T12:16:14.974Z,48.47
2017-12-22T12:18:42.456Z,47.77
2017-12-22T12:21:10.730Z,38.87
2017-12-22T12:23:38.995Z,40.03
2017-12-22T12:26:06.499Z,43.83
2017-12-22T12:28:34.031Z,45.10
2017-12-22T12:31:02.278Z,41.83
2017-12-22T12:33:29.778Z,48.60
2017-12-22T12:35:57.318Z,46.03
2017-12-22T12:38:25.584Z,47.50
2017-12-22T12:40:53.843Z,44.00
2017-12-22T12:43:21.364Z,45.03
2017-12-22T12:45:48.858Z,44.57
2017-12-22T12:48:16.455Z,43.97
2017-12-22T12:50:44.852Z,41.10
2017-12-22T12:53:13.171Z,39.03
2017-12-22T12:55:40.662Z,39.73
2017-12-22T12:58:08.974Z,38.83
2017-12-22T13:00:36.479Z,38.70
2017-12-22T13:03:03.995Z,41.53
2017-12-22T13:05:31.677Z,36.47
2017-12-22T13:07:59.186Z,35.40
2017-12-22T13:10:27.440Z,33.93
2017-12-22T13:12:55.123Z,34.70
2017-12-22T13:15:23.378Z,34.40
2017-12-22T13:17:50.866Z,31.77
2017-12-22T13:20:19.138Z,31.03
2017-12-22T13:22:47.382Z,33.37
2017-12-22T13:25:14.878Z,29.27
2017-12-22T13:27:43.164Z,31.20
2017-12-22T13:30:10.662Z,31.87
2017-12-22T13:32:38.153Z,31.17
2017-12-22T13:35:06.426Z,32.30
2017-12-22T13:37:34.706Z,31.30
2017-12-22T13:40:02.227Z,31.87
2017-12-22T13:42:29.735Z,36.27
2017-12-22T13:44:57.990Z,36.17
2017-12-22T13:47:25.489Z,36.80
2017-12-22T13:49:52.994Z,35.70
2017-12-22T13:52:20.493Z,36.90
2017-12-22T13:54:48.741Z,35.67
2017-12-22T13:57:16.258Z,40.20
2017-12-22T13:59:43.756Z,42.00
2017-12-22T14:02:11.239Z,36.30
2017-12-22T14:04:39.532Z,41.40
2017-12-22T14:07:07.793Z,38.07
2017-12-22T14:09:35.842Z,39.33
2017-12-22T14:12:03.458Z,39.43
2017-12-22T14:14:30.961Z,39.30
2017-12-22T14:16:58.442Z,38.10
2017-12-22T14:19:26.722Z,36.73
2017-12-22T14:21:54.982Z,36.90
2017-12-22T14:24:22.522Z,35.23
2017-12-22T14:26:50.074Z,34.50
2017-12-22T14:29:17.574Z,33.60
2017-12-22T14:31:45.827Z,36.03
2017-12-22T14:34:13.343Z,39.57
2017-12-22T14:36:40.846Z,39.03
2017-12-22T14:39:09.106Z,38.40
2017-12-22T14:41:36.635Z,37.10
2017-12-22T14:44:04.130Z,41.28
2017-12-22T14:46:31.622Z,40.17
2017-12-22T14:48:59.897Z,40.50
2017-12-22T14:51:28.158Z,41.43
2017-12-22T14:53:55.638Z,42.00
2017-12-22T14:56:23.152Z,42.00
2017-12-22T14:58:50.650Z,39.40
2017-12-22T15:01:18.909Z,39.80
2017-12-22T15:03:46.446Z,37.50
2017-12-22T15:06:13.941Z,41.03
2017-12-22T15:08:42.201Z,41.60
2017-12-22T15:11:09.738Z,41.75
2017-12-22T15:13:37.252Z,37.93
2017-12-22T15:16:04.738Z,39.10
2017-12-22T15:18:33.018Z,42.83
2017-12-22T15:21:00.503Z,40.77
2017-12-22T15:23:28.083Z,45.27
2017-12-22T15:25:55.621Z,42.33
2017-12-22T15:28:23.119Z,45.50
2017-12-22T15:30:50.614Z,43.90
2017-12-22T15:33:18.142Z,43.80
2017-12-22T15:35:45.639Z,43.50
2017-12-22T15:38:13.191Z,40.17
2017-12-22T15:40:41.497Z,40.15
2017-12-22T15:43:08.962Z,43.72
2017-12-22T15:45:36.485Z,42.23
2017-12-22T15:48:03.997Z,43.80
2017-12-22T15:50:32.255Z,45.87
2017-12-22T15:53:01.610Z,43.57
2017-12-22T15:55:32.856Z,45.00
2017-12-22T15:58:00.350Z,43.83
2017-12-22T16:00:27.846Z,42.13
2017-12-22T16:02:56.129Z,42.15
2017-12-22T16:05:23.638Z,42.85
2017-12-22T16:07:51.138Z,43.83
2017-12-22T16:10:19.416Z,40.20
2017-12-22T16:12:47.686Z,39.83
2017-12-22T16:15:15.984Z,37.47
2017-12-22T16:17:43.511Z,37.53
2017-12-22T16:20:11.763Z,34.80
2017-12-22T16:22:39.554Z,37.70
2017-12-22T16:25:07.817Z,33.67
2017-12-22T16:27:35.348Z,35.33
2017-12-22T16:30:02.839Z,35.37
2017-12-22T16:32:30.363Z,35.40
2017-12-22T16:34:57.870Z,33.93
2017-12-22T16:37:26.126Z,33.63
2017-12-22T16:39:53.676Z,34.00
2017-12-22T16:42:21.234Z,32.33
2017-12-22T16:44:48.724Z,36.20
2017-12-22T16:47:16.240Z,33.00
2017-12-22T16:49:43.759Z,32.43
2017-12-22T16:52:12.056Z,31.07
2017-12-22T16:54:39.603Z,34.57
2017-12-22T16:57:07.948Z,33.13
2017-12-22T16:59:35.443Z,37.17
2017-12-22T17:02:02.964Z,37.90
2017-12-22T17:04:30.490Z,35.57
2017-12-22T17:06:58.034Z,35.07
2017-12-22T17:09:25.534Z,33.80
2017-12-22T17:11:53.021Z,32.93
2017-12-22T17:14:21.274Z,35.13
2017-12-22T17:16:48.802Z,36.00
2017-12-22T17:19:16.290Z,35.30
2017-12-22T17:21:43.777Z,34.58
2017-12-22T17:24:11.302Z,37.97
2017-12-22T17:26:38.806Z,36.08
2017-12-22T17:29:06.301Z,35.83
2017-12-22T17:31:33.841Z,35.85
2017-12-22T17:34:01.328Z,34.10
2017-12-22T17:36:28.827Z,35.03
2017-12-22T17:38:56.394Z,36.30
2017-12-22T17:41:23.888Z,34.97
2017-12-22T17:43:51.381Z,38.57
2017-12-22T17:46:18.892Z,35.23
2017-12-22T17:48:46.386Z,38.20
2017-12-22T17:51:13.868Z,36.00
2017-12-22T17:53:41.526Z,34.20
2017-12-22T17:56:09.012Z,33.60
2017-12-22T17:58:37.351Z,31.80
2017-12-22T18:01:04.882Z,38.53
2017-12-22T18:03:32.372Z,39.22
2017-12-22T18:05:59.870Z,35.73
2017-12-22T18:08:27.373Z,35.57
2017-12-22T18:10:54.858Z,36.73
2017-12-22T18:13:22.347Z,37.60
2017-12-22T18:15:49.862Z,38.57
2017-12-22T18:18:17.350Z,35.88
2017-12-22T18:20:45.600Z,40.03
2017-12-22T18:23:13.115Z,36.30
2017-12-22T18:25:40.654Z,37.40
2017-12-22T18:28:08.138Z,37.10
2017-12-22T18:30:35.654Z,39.00
2017-12-22T18:33:03.906Z,38.42
2017-12-22T18:35:31.407Z,38.42
2017-12-22T18:37:59.092Z,37.83
2017-12-22T18:40:26.578Z,35.47
2017-12-22T18:42:54.068Z,32.50
2017-12-22T18:45:22.389Z,36.47
2017-12-22T18:47:49.874Z,39.75
2017-12-22T18:50:17.370Z,40.00
2017-12-22T18:52:45.683Z,35.57
2017-12-22T18:55:13.174Z,37.38
2017-12-22T18:57:40.670Z,34.95
2017-12-22T19:00:08.931Z,35.17
2017-12-22T19:02:37.182Z,36.00
2017-12-22T19:05:04.672Z,37.43
2017-12-22T19:07:33.800Z,36.93
2017-12-22T19:10:04.068Z,38.90
2017-12-22T19:12:31.559Z,36.20
2017-12-22T19:14:59.081Z,40.65
2017-12-22T19:17:26.580Z,37.00
2017-12-22T19:19:54.078Z,35.35
2017-12-22T19:22:21.602Z,36.83
2017-12-22T19:24:49.098Z,38.40
2017-12-22T19:27:16.589Z,37.47
2017-12-22T19:29:44.880Z,40.60
2017-12-22T19:32:13.142Z,35.67
2017-12-22T19:34:41.408Z,34.70
2017-12-22T19:37:09.781Z,34.07
2017-12-22T19:39:37.266Z,35.57
2017-12-22T19:42:05.512Z,33.50
2017-12-22T19:44:33.042Z,35.90
2017-12-22T19:47:00.534Z,34.93
2017-12-22T19:49:28.090Z,35.73
2017-12-22T19:51:55.693Z,31.05
2017-12-22T19:54:23.210Z,30.20
2017-12-22T19:56:51.386Z,34.03
2017-12-22T19:59:18.879Z,32.93
2017-12-22T20:01:47.126Z,35.80
2017-12-22T20:04:14.602Z,34.13
2017-12-22T20:06:42.883Z,33.73
2017-12-22T20:09:10.382Z,33.42
2017-12-22T20:11:37.862Z,31.97
2017-12-22T20:14:05.370Z,35.97
2017-12-22T20:16:33.626Z,32.23
2017-12-22T20:19:01.110Z,32.90
2017-12-22T20:21:28.610Z,31.53
2017-12-22T20:23:56.175Z,32.67
2017-12-22T20:26:23.728Z,28.60
2017-12-22T20:28:51.222Z,31.20
2017-12-22T20:31:18.702Z,28.10
2017-12-22T20:33:46.954Z,28.60
2017-12-22T20:36:14.469Z,27.20
2017-12-22T20:38:41.967Z,30.03
2017-12-22T20:41:09.450Z,27.40
2017-12-22T20:43:37.721Z,28.33
2017-12-22T20:46:06.031Z,26.20
2017-12-22T20:48:33.510Z,27.20
2017-12-22T20:51:01.597Z,27.40
2017-12-22T20:53:29.100Z,27.87
2017-12-22T20:55:56.634Z,29.25
2017-12-22T20:58:24.150Z,26.53
2017-12-22T21:00:51.650Z,26.50
2017-12-22T21:03:19.910Z,26.80
2017-12-22T21:05:47.428Z,24.57
2017-12-22T21:08:14.959Z,26.52
2017-12-22T21:10:43.222Z,26.23
2017-12-22T21:13:11.503Z,28.60
2017-12-22T21:15:40.250Z,27.70
2017-12-22T21:18:09.591Z,26.07
2017-12-22T21:20:37.088Z,29.00
2017-12-22T21:23:04.599Z,26.60
2017-12-22T21:25:32.085Z,27.37
2017-12-22T21:27:59.588Z,28.70
2017-12-22T21:30:27.071Z,26.47
2017-12-22T21:32:54.564Z,26.43
2017-12-22T21:35:22.880Z,27.63
2017-12-22T21:37:50.404Z,28.85
2017-12-22T21:40:17.896Z,27.45
2017-12-22T21:42:45.426Z,27.02
2017-12-22T21:45:12.905Z,27.10
2017-12-22T21:47:40.394Z,27.00
2017-12-22T21:50:08.906Z,28.45
2017-12-22T21:52:37.166Z,27.80
2017-12-22T21:55:04.655Z,25.17
2017-12-22T21:57:32.158Z,25.20
2017-12-22T21:59:59.645Z,27.62
2017-12-22T22:02:27.247Z,27.43
2017-12-22T22:04:55.654Z,27.50
2017-12-22T22:07:23.759Z,26.47
2017-12-22T22:09:51.241Z,26.70
2017-12-22T22:12:19.518Z,22.80
2017-12-22T22:14:47.034Z,26.73
2017-12-22T22:17:14.539Z,25.50
2017-12-22T22:19:43.545Z,24.40
2017-12-22T22:22:11.036Z,22.60
2017-12-22T22:24:38.606Z,24.70
2017-12-22T22:27:06.114Z,21.50
2017-12-22T22:29:33.642Z,22.13
2017-12-22T22:32:01.890Z,20.85
2017-12-22T22:34:29.400Z,20.67
2017-12-22T22:36:56.885Z,19.70
2017-12-22T22:39:24.363Z,19.67
2017-12-22T22:41:51.876Z,19.92
2017-12-22T22:44:19.375Z,17.45
2017-12-22T22:46:46.870Z,18.30
2017-12-22T22:49:15.153Z,16.60
2017-12-22T22:51:43.494Z,15.98
2017-12-22T22:54:11.010Z,18.57
2017-12-22T22:56:38.541Z,18.37
2017-12-22T22:59:06.808Z,16.73
2017-12-22T23:01:34.303Z,18.27
2017-12-22T23:04:01.853Z,17.17
2017-12-22T23:06:30.114Z,19.95
2017-12-22T23:08:57.606Z,17.27
2017-12-22T23:11:25.109Z,16.83
2017-12-22T23:13:52.718Z,18.50
2017-12-22T23:16:20.235Z,17.97
2017-12-22T23:18:47.751Z,18.63
2017-12-22T23:21:15.237Z,16.58
2017-12-22T23:23:42.718Z,19.10
2017-12-22T23:26:10.226Z,15.20
2017-12-22T23:28:37.710Z,15.77
2017-12-22T23:31:05.206Z,15.02
2017-12-22T23:33:33.495Z,14.30
2017-12-22T23:36:01.890Z,15.20
2017-12-22T23:38:29.392Z,15.20
2017-12-22T23:40:56.890Z,16.53
2017-12-22T23:43:25.159Z,16.85
2017-12-22T23:45:53.422Z,17.00
2017-12-22T23:48:20.978Z,17.33
2017-12-22T23:50:48.460Z,16.63
2017-12-22T23:53:16.714Z,16.80
2017-12-22T23:55:44.235Z,16.37
2017-12-22T23:58:11.709Z,18.03
